sensor_id;sensor_type;location;lat;lon;timestamp;P1;durP1;ratioP1;P2;durP2;ratioP2
27365;SDS011;14837;57.148;-2.144;2024-02-28T00:00:57;4.93;;;2.65;;
27365;SDS011;14837;57.148;-2.144;2024-02-28T00:03:23;2.97;;;1.60;;
27365;SDS011;14837;57.148;-2.144;2024-02-28T00:05:50;4.28;;;2.58;;
27365;SDS011;14837;57.148;-2.144;2024-02-28T00:08:17;5.75;;;3.10;;
27365;SDS011;14837;57.148;-2.144;2024-02-28T00:10:45;4.35;;;2.20;;
27365;SDS011;14837;57.148;-2.144;2024-02-28T00:13:12;4.47;;;1.73;;
27365;SDS011;14837;57.148;-2.144;2024-02-28T00:15:38;6.55;;;3.42;;
27365;SDS011;14837;57.148;-2.144;2024-02-28T00:18:05;3.03;;;1.67;;
27365;SDS011;14837;57.148;-2.144;2024-02-28T00:20:32;6.90;;;1.85;;
27365;SDS011;14837;57.148;-2.144;2024-02-28T00:22:58;4.20;;;1.80;;
27365;SDS011;14837;57.148;-2.144;2024-02-28T00:25:25;2.78;;;1.38;;
27365;SDS011;14837;57.148;-2.144;2024-02-28T00:27:52;4.95;;;1.67;;
27365;SDS011;14837;57.148;-2.144;2024-02-28T00:30:18;4.20;;;2.22;;
27365;SDS011;14837;57.148;-2.144;2024-02-28T00:32:45;5.32;;;2.20;;
27365;SDS011;14837;57.148;-2.144;2024-02-28T00:35:12;5.13;;;2.28;;
27365;SDS011;14837;57.148;-2.144;2024-02-28T00:37:39;4.63;;;2.10;;
27365;SDS011;14837;57.148;-2.144;2024-02-28T00:40:07;4.93;;;2.15;;
27365;SDS011;14837;57.148;-2.144;2024-02-28T00:42:34;4.38;;;2.65;;
27365;SDS011;14837;57.148;-2.144;2024-02-28T00:45:00;4.15;;;1.90;;
27365;SDS011;14837;57.148;-2.144;2024-02-28T00:47:27;4.97;;;2.60;;
27365;SDS011;14837;57.148;-2.144;2024-02-28T00:49:53;7.05;;;2.25;;
27365;SDS011;14837;57.148;-2.144;2024-02-28T00:52:20;4.22;;;2.22;;
27365;SDS011;14837;57.148;-2.144;2024-02-28T00:54:47;5.72;;;2.60;;
27365;SDS011;14837;57.148;-2.144;2024-02-28T00:57:13;5.50;;;2.03;;
27365;SDS011;14837;57.148;-2.144;2024-02-28T00:59:40;5.10;;;2.42;;
27365;SDS011;14837;57.148;-2.144;2024-02-28T01:02:06;5.18;;;2.25;;
27365;SDS011;14837;57.148;-2.144;2024-02-28T01:04:33;4.57;;;2.00;;
27365;SDS011;14837;57.148;-2.144;2024-02-28T01:07:00;4.63;;;1.60;;
27365;SDS011;14837;57.148;-2.144;2024-02-28T01:09:26;4.38;;;1.90;;
27365;SDS011;14837;57.148;-2.144;2024-02-28T01:11:53;5.32;;;2.10;;
27365;SDS011;14837;57.148;-2.144;2024-02-28T01:14:19;3.45;;;2.33;;
27365;SDS011;14837;57.148;-2.144;2024-02-28T01:16:46;7.50;;;2.03;;
27365;SDS011;14837;57.148;-2.144;2024-02-28T01:19:12;7.05;;;2.50;;
27365;SDS011;14837;57.148;-2.144;2024-02-28T01:21:39;3.85;;;1.90;;
27365;SDS011;14837;57.148;-2.144;2024-02-28T01:24:06;5.20;;;2.25;;
27365;SDS011;14837;57.148;-2.144;2024-02-28T01:26:32;5.72;;;1.80;;
27365;SDS011;14837;57.148;-2.144;2024-02-28T01:28:59;5.85;;;2.33;;
27365;SDS011;14837;57.148;-2.144;2024-02-28T01:31:25;6.85;;;1.92;;
27365;SDS011;14837;57.148;-2.144;2024-02-28T01:33:52;6.78;;;2.25;;
27365;SDS011;14837;57.148;-2.144;2024-02-28T01:36:19;4.82;;;2.05;;
27365;SDS011;14837;57.148;-2.144;2024-02-28T01:38:45;3.70;;;1.70;;
27365;SDS011;14837;57.148;-2.144;2024-02-28T01:41:12;3.75;;;1.45;;
27365;SDS011;14837;57.148;-2.144;2024-02-28T01:43:38;5.30;;;1.92;;
27365;SDS011;14837;57.148;-2.144;2024-02-28T01:46:08;5.43;;;2.03;;
27365;SDS011;14837;57.148;-2.144;2024-02-28T01:48:38;5.18;;;2.78;;
27365;SDS011;14837;57.148;-2.144;2024-02-28T01:51:05;4.70;;;1.92;;
27365;SDS011;14837;57.148;-2.144;2024-02-28T01:53:31;3.55;;;3.25;;
27365;SDS011;14837;57.148;-2.144;2024-02-28T01:55:58;4.35;;;2.38;;
27365;SDS011;14837;57.148;-2.144;2024-02-28T01:58:25;6.10;;;2.55;;
27365;SDS011;14837;57.148;-2.144;2024-02-28T02:00:51;5.00;;;2.25;;
27365;SDS011;14837;57.148;-2.144;2024-02-28T02:03:18;4.45;;;1.92;;
27365;SDS011;14837;57.148;-2.144;2024-02-28T02:05:47;5.90;;;1.95;;
27365;SDS011;14837;57.148;-2.144;2024-02-28T02:08:14;3.58;;;1.98;;
27365;SDS011;14837;57.148;-2.144;2024-02-28T02:10:41;5.03;;;2.10;;
27365;SDS011;14837;57.148;-2.144;2024-02-28T02:13:07;5.40;;;1.48;;
27365;SDS011;14837;57.148;-2.144;2024-02-28T02:15:34;3.33;;;1.80;;
27365;SDS011;14837;57.148;-2.144;2024-02-28T02:18:01;5.10;;;1.95;;
27365;SDS011;14837;57.148;-2.144;2024-02-28T02:20:29;3.15;;;1.60;;
27365;SDS011;14837;57.148;-2.144;2024-02-28T02:22:56;5.30;;;2.40;;
27365;SDS011;14837;57.148;-2.144;2024-02-28T02:25:22;3.80;;;2.28;;
27365;SDS011;14837;57.148;-2.144;2024-02-28T02:27:49;4.00;;;2.42;;
27365;SDS011;14837;57.148;-2.144;2024-02-28T02:30:15;3.45;;;2.75;;
27365;SDS011;14837;57.148;-2.144;2024-02-28T02:32:42;3.30;;;1.83;;
27365;SDS011;14837;57.148;-2.144;2024-02-28T02:35:09;4.35;;;2.05;;
27365;SDS011;14837;57.148;-2.144;2024-02-28T02:37:35;5.18;;;2.38;;
27365;SDS011;14837;57.148;-2.144;2024-02-28T02:40:02;5.97;;;2.90;;
27365;SDS011;14837;57.148;-2.144;2024-02-28T02:42:28;7.57;;;2.55;;
27365;SDS011;14837;57.148;-2.144;2024-02-28T02:44:55;4.07;;;2.03;;
27365;SDS011;14837;57.148;-2.144;2024-02-28T02:47:22;5.43;;;2.85;;
27365;SDS011;14837;57.148;-2.144;2024-02-28T02:49:48;3.83;;;2.17;;
27365;SDS011;14837;57.148;-2.144;2024-02-28T02:52:15;7.28;;;2.70;;
27365;SDS011;14837;57.148;-2.144;2024-02-28T02:54:41;5.28;;;2.15;;
27365;SDS011;14837;57.148;-2.144;2024-02-28T02:57:08;7.43;;;2.38;;
27365;SDS011;14837;57.148;-2.144;2024-02-28T02:59:35;5.07;;;2.80;;
27365;SDS011;14837;57.148;-2.144;2024-02-28T03:02:02;6.00;;;2.72;;
27365;SDS011;14837;57.148;-2.144;2024-02-28T03:04:30;4.95;;;2.22;;
27365;SDS011;14837;57.148;-2.144;2024-02-28T03:06:56;5.53;;;2.45;;
27365;SDS011;14837;57.148;-2.144;2024-02-28T03:09:23;3.90;;;2.28;;
27365;SDS011;14837;57.148;-2.144;2024-02-28T03:11:51;7.05;;;2.15;;
27365;SDS011;14837;57.148;-2.144;2024-02-28T03:14:17;5.93;;;2.08;;
27365;SDS011;14837;57.148;-2.144;2024-02-28T03:16:45;7.78;;;2.95;;
27365;SDS011;14837;57.148;-2.144;2024-02-28T03:19:12;6.40;;;2.20;;
27365;SDS011;14837;57.148;-2.144;2024-02-28T03:21:38;5.22;;;3.03;;
27365;SDS011;14837;57.148;-2.144;2024-02-28T03:24:05;4.85;;;2.22;;
27365;SDS011;14837;57.148;-2.144;2024-02-28T03:26:31;5.65;;;2.65;;
27365;SDS011;14837;57.148;-2.144;2024-02-28T03:28:58;4.50;;;1.83;;
27365;SDS011;14837;57.148;-2.144;2024-02-28T03:31:25;5.70;;;2.05;;
27365;SDS011;14837;57.148;-2.144;2024-02-28T03:33:52;5.28;;;2.05;;
27365;SDS011;14837;57.148;-2.144;2024-02-28T03:36:18;4.70;;;2.30;;
27365;SDS011;14837;57.148;-2.144;2024-02-28T03:38:45;6.40;;;2.78;;
27365;SDS011;14837;57.148;-2.144;2024-02-28T03:41:11;5.55;;;2.10;;
27365;SDS011;14837;57.148;-2.144;2024-02-28T03:43:38;5.95;;;2.55;;
27365;SDS011;14837;57.148;-2.144;2024-02-28T03:46:04;9.18;;;3.35;;
27365;SDS011;14837;57.148;-2.144;2024-02-28T03:48:31;5.30;;;2.30;;
27365;SDS011;14837;57.148;-2.144;2024-02-28T03:50:57;6.50;;;2.38;;
27365;SDS011;14837;57.148;-2.144;2024-02-28T03:53:24;6.88;;;2.40;;
27365;SDS011;14837;57.148;-2.144;2024-02-28T03:55:51;6.63;;;2.10;;
27365;SDS011;14837;57.148;-2.144;2024-02-28T03:58:17;4.32;;;2.00;;
27365;SDS011;14837;57.148;-2.144;2024-02-28T04:00:44;6.03;;;2.10;;
27365;SDS011;14837;57.148;-2.144;2024-02-28T04:03:12;2.95;;;1.67;;
27365;SDS011;14837;57.148;-2.144;2024-02-28T04:05:40;5.95;;;2.55;;
27365;SDS011;14837;57.148;-2.144;2024-02-28T04:08:07;5.63;;;2.25;;
27365;SDS011;14837;57.148;-2.144;2024-02-28T04:10:33;5.93;;;2.00;;
27365;SDS011;14837;57.148;-2.144;2024-02-28T04:13:00;5.82;;;2.90;;
27365;SDS011;14837;57.148;-2.144;2024-02-28T04:15:26;5.78;;;2.25;;
27365;SDS011;14837;57.148;-2.144;2024-02-28T04:17:53;7.10;;;2.25;;
27365;SDS011;14837;57.148;-2.144;2024-02-28T04:20:20;6.15;;;3.33;;
27365;SDS011;14837;57.148;-2.144;2024-02-28T04:22:47;7.38;;;2.60;;
27365;SDS011;14837;57.148;-2.144;2024-02-28T04:25:13;7.40;;;2.75;;
27365;SDS011;14837;57.148;-2.144;2024-02-28T04:27:40;4.75;;;2.38;;
27365;SDS011;14837;57.148;-2.144;2024-02-28T04:30:06;6.05;;;2.80;;
27365;SDS011;14837;57.148;-2.144;2024-02-28T04:32:33;5.03;;;2.88;;
27365;SDS011;14837;57.148;-2.144;2024-02-28T04:35:02;7.07;;;2.17;;
27365;SDS011;14837;57.148;-2.144;2024-02-28T04:37:29;4.40;;;2.30;;
27365;SDS011;14837;57.148;-2.144;2024-02-28T04:39:56;8.95;;;3.08;;
27365;SDS011;14837;57.148;-2.144;2024-02-28T04:42:22;4.57;;;2.60;;
27365;SDS011;14837;57.148;-2.144;2024-02-28T04:44:49;3.83;;;2.25;;
27365;SDS011;14837;57.148;-2.144;2024-02-28T04:47:15;6.53;;;2.38;;
27365;SDS011;14837;57.148;-2.144;2024-02-28T04:49:45;4.95;;;2.00;;
27365;SDS011;14837;57.148;-2.144;2024-02-28T04:52:11;5.53;;;2.80;;
27365;SDS011;14837;57.148;-2.144;2024-02-28T04:54:39;9.70;;;2.70;;
27365;SDS011;14837;57.148;-2.144;2024-02-28T04:57:06;7.70;;;2.67;;
27365;SDS011;14837;57.148;-2.144;2024-02-28T04:59:32;7.50;;;2.95;;
27365;SDS011;14837;57.148;-2.144;2024-02-28T05:01:59;4.78;;;2.20;;
27365;SDS011;14837;57.148;-2.144;2024-02-28T05:04:26;4.97;;;2.22;;
27365;SDS011;14837;57.148;-2.144;2024-02-28T05:06:53;4.78;;;2.22;;
27365;SDS011;14837;57.148;-2.144;2024-02-28T05:09:19;7.97;;;2.72;;
27365;SDS011;14837;57.148;-2.144;2024-02-28T05:11:46;7.40;;;2.47;;
27365;SDS011;14837;57.148;-2.144;2024-02-28T05:14:12;8.00;;;1.83;;
27365;SDS011;14837;57.148;-2.144;2024-02-28T05:16:39;7.28;;;2.72;;
27365;SDS011;14837;57.148;-2.144;2024-02-28T05:19:06;5.20;;;2.60;;
27365;SDS011;14837;57.148;-2.144;2024-02-28T05:21:39;5.90;;;2.40;;
27365;SDS011;14837;57.148;-2.144;2024-02-28T05:24:05;6.63;;;2.53;;
27365;SDS011;14837;57.148;-2.144;2024-02-28T05:26:32;4.80;;;2.33;;
27365;SDS011;14837;57.148;-2.144;2024-02-28T05:29:00;6.88;;;2.50;;
27365;SDS011;14837;57.148;-2.144;2024-02-28T05:31:27;7.35;;;2.58;;
27365;SDS011;14837;57.148;-2.144;2024-02-28T05:33:56;5.13;;;2.70;;
27365;SDS011;14837;57.148;-2.144;2024-02-28T05:36:23;8.57;;;2.13;;
27365;SDS011;14837;57.148;-2.144;2024-02-28T05:38:51;6.85;;;2.92;;
27365;SDS011;14837;57.148;-2.144;2024-02-28T05:41:18;5.53;;;2.55;;
27365;SDS011;14837;57.148;-2.144;2024-02-28T05:43:44;5.43;;;2.10;;
27365;SDS011;14837;57.148;-2.144;2024-02-28T05:46:12;6.85;;;2.45;;
27365;SDS011;14837;57.148;-2.144;2024-02-28T05:48:42;6.97;;;2.78;;
27365;SDS011;14837;57.148;-2.144;2024-02-28T05:51:09;7.70;;;2.63;;
27365;SDS011;14837;57.148;-2.144;2024-02-28T05:53:36;5.90;;;2.92;;
27365;SDS011;14837;57.148;-2.144;2024-02-28T05:56:04;6.90;;;2.95;;
27365;SDS011;14837;57.148;-2.144;2024-02-28T05:58:31;7.15;;;3.95;;
27365;SDS011;14837;57.148;-2.144;2024-02-28T06:00:58;4.60;;;2.42;;
27365;SDS011;14837;57.148;-2.144;2024-02-28T06:03:24;9.35;;;3.35;;
27365;SDS011;14837;57.148;-2.144;2024-02-28T06:05:51;7.03;;;2.90;;
27365;SDS011;14837;57.148;-2.144;2024-02-28T06:08:18;7.10;;;2.88;;
27365;SDS011;14837;57.148;-2.144;2024-02-28T06:10:45;4.97;;;2.35;;
27365;SDS011;14837;57.148;-2.144;2024-02-28T06:13:13;5.35;;;2.30;;
27365;SDS011;14837;57.148;-2.144;2024-02-28T06:15:40;6.85;;;3.05;;
27365;SDS011;14837;57.148;-2.144;2024-02-28T06:18:07;6.55;;;2.65;;
27365;SDS011;14837;57.148;-2.144;2024-02-28T06:20:33;8.45;;;2.60;;
27365;SDS011;14837;57.148;-2.144;2024-02-28T06:23:00;4.82;;;2.13;;
27365;SDS011;14837;57.148;-2.144;2024-02-28T06:25:38;6.32;;;3.13;;
27365;SDS011;14837;57.148;-2.144;2024-02-28T06:28:05;4.00;;;2.50;;
27365;SDS011;14837;57.148;-2.144;2024-02-28T06:30:33;6.25;;;2.03;;
27365;SDS011;14837;57.148;-2.144;2024-02-28T06:33:00;7.20;;;2.88;;
27365;SDS011;14837;57.148;-2.144;2024-02-28T06:35:27;5.88;;;3.17;;
27365;SDS011;14837;57.148;-2.144;2024-02-28T06:37:54;7.93;;;2.20;;
27365;SDS011;14837;57.148;-2.144;2024-02-28T06:40:20;5.68;;;3.28;;
27365;SDS011;14837;57.148;-2.144;2024-02-28T06:42:47;4.07;;;2.20;;
27365;SDS011;14837;57.148;-2.144;2024-02-28T06:45:14;5.13;;;2.75;;
27365;SDS011;14837;57.148;-2.144;2024-02-28T06:47:41;9.75;;;3.03;;
27365;SDS011;14837;57.148;-2.144;2024-02-28T06:50:08;6.88;;;2.90;;
27365;SDS011;14837;57.148;-2.144;2024-02-28T06:52:34;10.18;;;3.20;;
27365;SDS011;14837;57.148;-2.144;2024-02-28T06:55:01;5.10;;;3.22;;
27365;SDS011;14837;57.148;-2.144;2024-02-28T06:57:37;7.90;;;3.08;;
27365;SDS011;14837;57.148;-2.144;2024-02-28T07:00:08;7.85;;;2.83;;
27365;SDS011;14837;57.148;-2.144;2024-02-28T07:02:35;8.68;;;3.00;;
27365;SDS011;14837;57.148;-2.144;2024-02-28T07:05:02;10.63;;;3.38;;
27365;SDS011;14837;57.148;-2.144;2024-02-28T07:07:30;9.07;;;3.33;;
27365;SDS011;14837;57.148;-2.144;2024-02-28T07:09:57;12.40;;;4.63;;
27365;SDS011;14837;57.148;-2.144;2024-02-28T07:12:24;8.10;;;4.05;;
27365;SDS011;14837;57.148;-2.144;2024-02-28T07:14:51;7.78;;;3.75;;
27365;SDS011;14837;57.148;-2.144;2024-02-28T07:17:18;10.27;;;3.45;;
27365;SDS011;14837;57.148;-2.144;2024-02-28T07:19:44;9.27;;;3.30;;
27365;SDS011;14837;57.148;-2.144;2024-02-28T07:22:11;7.97;;;3.45;;
27365;SDS011;14837;57.148;-2.144;2024-02-28T07:24:37;6.10;;;2.60;;
27365;SDS011;14837;57.148;-2.144;2024-02-28T07:27:04;8.27;;;3.38;;
27365;SDS011;14837;57.148;-2.144;2024-02-28T07:29:30;8.10;;;3.08;;
27365;SDS011;14837;57.148;-2.144;2024-02-28T07:31:57;6.85;;;3.40;;
27365;SDS011;14837;57.148;-2.144;2024-02-28T07:34:23;8.10;;;4.20;;
27365;SDS011;14837;57.148;-2.144;2024-02-28T07:36:50;7.05;;;3.83;;
27365;SDS011;14837;57.148;-2.144;2024-02-28T07:39:17;5.50;;;3.05;;
27365;SDS011;14837;57.148;-2.144;2024-02-28T07:41:43;10.32;;;2.90;;
27365;SDS011;14837;57.148;-2.144;2024-02-28T07:44:10;6.13;;;3.13;;
27365;SDS011;14837;57.148;-2.144;2024-02-28T07:46:37;7.35;;;3.67;;
27365;SDS011;14837;57.148;-2.144;2024-02-28T07:49:04;7.75;;;3.63;;
27365;SDS011;14837;57.148;-2.144;2024-02-28T07:51:30;6.57;;;3.92;;
27365;SDS011;14837;57.148;-2.144;2024-02-28T07:53:57;7.60;;;3.67;;
27365;SDS011;14837;57.148;-2.144;2024-02-28T07:56:23;8.13;;;3.90;;
27365;SDS011;14837;57.148;-2.144;2024-02-28T07:58:50;6.20;;;3.10;;
27365;SDS011;14837;57.148;-2.144;2024-02-28T08:01:17;10.88;;;4.22;;
27365;SDS011;14837;57.148;-2.144;2024-02-28T08:03:44;6.68;;;3.35;;
27365;SDS011;14837;57.148;-2.144;2024-02-28T08:06:10;10.40;;;3.10;;
27365;SDS011;14837;57.148;-2.144;2024-02-28T08:08:37;6.15;;;3.08;;
27365;SDS011;14837;57.148;-2.144;2024-02-28T08:11:03;5.70;;;3.20;;
27365;SDS011;14837;57.148;-2.144;2024-02-28T08:13:30;6.28;;;3.47;;
27365;SDS011;14837;57.148;-2.144;2024-02-28T08:15:59;10.32;;;3.72;;
27365;SDS011;14837;57.148;-2.144;2024-02-28T08:18:26;7.50;;;3.83;;
27365;SDS011;14837;57.148;-2.144;2024-02-28T08:20:54;8.23;;;3.35;;
27365;SDS011;14837;57.148;-2.144;2024-02-28T08:23:23;7.97;;;3.55;;
27365;SDS011;14837;57.148;-2.144;2024-02-28T08:25:52;10.52;;;4.45;;
27365;SDS011;14837;57.148;-2.144;2024-02-28T08:28:19;13.75;;;4.85;;
27365;SDS011;14837;57.148;-2.144;2024-02-28T08:30:48;10.70;;;4.05;;
27365;SDS011;14837;57.148;-2.144;2024-02-28T08:33:29;11.77;;;4.57;;
27365;SDS011;14837;57.148;-2.144;2024-02-28T08:35:56;9.40;;;4.35;;
27365;SDS011;14837;57.148;-2.144;2024-02-28T08:38:23;10.65;;;4.45;;
27365;SDS011;14837;57.148;-2.144;2024-02-28T08:40:50;9.85;;;3.45;;
27365;SDS011;14837;57.148;-2.144;2024-02-28T08:43:16;9.23;;;3.83;;
27365;SDS011;14837;57.148;-2.144;2024-02-28T08:45:43;10.38;;;4.28;;
27365;SDS011;14837;57.148;-2.144;2024-02-28T08:48:09;12.60;;;5.10;;
27365;SDS011;14837;57.148;-2.144;2024-02-28T08:50:36;11.18;;;3.85;;
27365;SDS011;14837;57.148;-2.144;2024-02-28T08:53:02;10.85;;;3.67;;
27365;SDS011;14837;57.148;-2.144;2024-02-28T08:55:29;9.63;;;4.65;;
27365;SDS011;14837;57.148;-2.144;2024-02-28T08:57:57;14.60;;;5.00;;
27365;SDS011;14837;57.148;-2.144;2024-02-28T09:00:24;9.63;;;3.50;;
27365;SDS011;14837;57.148;-2.144;2024-02-28T09:02:51;13.05;;;5.57;;
27365;SDS011;14837;57.148;-2.144;2024-02-28T09:05:18;10.65;;;4.18;;
27365;SDS011;14837;57.148;-2.144;2024-02-28T09:07:44;10.20;;;4.38;;
27365;SDS011;14837;57.148;-2.144;2024-02-28T09:10:12;13.93;;;4.72;;
27365;SDS011;14837;57.148;-2.144;2024-02-28T09:12:39;9.68;;;3.47;;
27365;SDS011;14837;57.148;-2.144;2024-02-28T09:15:05;16.63;;;4.78;;
27365;SDS011;14837;57.148;-2.144;2024-02-28T09:17:32;11.98;;;4.55;;
27365;SDS011;14837;57.148;-2.144;2024-02-28T09:19:59;11.38;;;5.25;;
27365;SDS011;14837;57.148;-2.144;2024-02-28T09:22:27;7.22;;;3.40;;
27365;SDS011;14837;57.148;-2.144;2024-02-28T09:24:54;9.70;;;4.05;;
27365;SDS011;14837;57.148;-2.144;2024-02-28T09:27:21;10.48;;;4.13;;
27365;SDS011;14837;57.148;-2.144;2024-02-28T09:29:48;11.05;;;3.97;;
27365;SDS011;14837;57.148;-2.144;2024-02-28T09:32:14;10.35;;;4.50;;
27365;SDS011;14837;57.148;-2.144;2024-02-28T09:34:41;14.32;;;4.80;;
27365;SDS011;14837;57.148;-2.144;2024-02-28T09:37:08;12.23;;;5.03;;
27365;SDS011;14837;57.148;-2.144;2024-02-28T09:39:37;14.80;;;5.10;;
27365;SDS011;14837;57.148;-2.144;2024-02-28T09:42:04;13.05;;;4.43;;
27365;SDS011;14837;57.148;-2.144;2024-02-28T09:44:31;12.55;;;4.07;;
27365;SDS011;14837;57.148;-2.144;2024-02-28T09:46:58;9.70;;;4.10;;
27365;SDS011;14837;57.148;-2.144;2024-02-28T09:49:24;14.90;;;4.65;;
27365;SDS011;14837;57.148;-2.144;2024-02-28T09:51:53;13.52;;;4.43;;
27365;SDS011;14837;57.148;-2.144;2024-02-28T09:54:19;13.02;;;5.47;;
27365;SDS011;14837;57.148;-2.144;2024-02-28T09:56:47;10.07;;;4.82;;
27365;SDS011;14837;57.148;-2.144;2024-02-28T09:59:15;12.57;;;4.65;;
27365;SDS011;14837;57.148;-2.144;2024-02-28T10:01:42;11.30;;;5.53;;
27365;SDS011;14837;57.148;-2.144;2024-02-28T10:04:10;13.68;;;4.80;;
27365;SDS011;14837;57.148;-2.144;2024-02-28T10:06:39;9.25;;;3.97;;
27365;SDS011;14837;57.148;-2.144;2024-02-28T10:09:06;13.65;;;4.18;;
27365;SDS011;14837;57.148;-2.144;2024-02-28T10:11:33;13.73;;;4.75;;
27365;SDS011;14837;57.148;-2.144;2024-02-28T10:14:02;9.25;;;4.10;;
27365;SDS011;14837;57.148;-2.144;2024-02-28T10:16:29;9.35;;;4.90;;
27365;SDS011;14837;57.148;-2.144;2024-02-28T10:18:55;9.65;;;5.07;;
27365;SDS011;14837;57.148;-2.144;2024-02-28T10:21:22;8.70;;;3.58;;
27365;SDS011;14837;57.148;-2.144;2024-02-28T10:23:50;6.90;;;4.25;;
27365;SDS011;14837;57.148;-2.144;2024-02-28T10:26:16;11.30;;;4.63;;
27365;SDS011;14837;57.148;-2.144;2024-02-28T10:28:43;9.02;;;3.53;;
27365;SDS011;14837;57.148;-2.144;2024-02-28T10:31:12;9.23;;;4.03;;
27365;SDS011;14837;57.148;-2.144;2024-02-28T10:33:41;8.35;;;3.85;;
27365;SDS011;14837;57.148;-2.144;2024-02-28T10:36:08;9.10;;;3.90;;
27365;SDS011;14837;57.148;-2.144;2024-02-28T10:38:35;8.25;;;4.20;;
27365;SDS011;14837;57.148;-2.144;2024-02-28T10:41:05;11.55;;;4.28;;
27365;SDS011;14837;57.148;-2.144;2024-02-28T10:43:33;10.95;;;4.65;;
27365;SDS011;14837;57.148;-2.144;2024-02-28T10:46:01;10.30;;;5.13;;
27365;SDS011;14837;57.148;-2.144;2024-02-28T10:48:30;10.93;;;4.72;;
27365;SDS011;14837;57.148;-2.144;2024-02-28T10:50:57;11.48;;;4.93;;
27365;SDS011;14837;57.148;-2.144;2024-02-28T10:53:37;13.65;;;5.95;;
27365;SDS011;14837;57.148;-2.144;2024-02-28T10:56:09;12.67;;;3.90;;
27365;SDS011;14837;57.148;-2.144;2024-02-28T10:58:38;10.20;;;4.82;;
27365;SDS011;14837;57.148;-2.144;2024-02-28T11:01:06;12.20;;;4.90;;
27365;SDS011;14837;57.148;-2.144;2024-02-28T11:03:34;10.77;;;4.97;;
27365;SDS011;14837;57.148;-2.144;2024-02-28T11:06:01;8.18;;;3.92;;
27365;SDS011;14837;57.148;-2.144;2024-02-28T11:08:29;8.77;;;3.88;;
27365;SDS011;14837;57.148;-2.144;2024-02-28T11:10:56;11.52;;;4.30;;
27365;SDS011;14837;57.148;-2.144;2024-02-28T11:13:23;7.57;;;3.60;;
27365;SDS011;14837;57.148;-2.144;2024-02-28T11:15:50;10.43;;;4.05;;
27365;SDS011;14837;57.148;-2.144;2024-02-28T11:18:17;9.10;;;4.10;;
27365;SDS011;14837;57.148;-2.144;2024-02-28T11:20:44;9.23;;;4.55;;
27365;SDS011;14837;57.148;-2.144;2024-02-28T11:23:14;8.27;;;3.78;;
27365;SDS011;14837;57.148;-2.144;2024-02-28T11:25:41;10.38;;;3.78;;
27365;SDS011;14837;57.148;-2.144;2024-02-28T11:28:08;10.45;;;3.92;;
27365;SDS011;14837;57.148;-2.144;2024-02-28T11:30:34;11.63;;;4.40;;
27365;SDS011;14837;57.148;-2.144;2024-02-28T11:33:01;10.70;;;3.53;;
27365;SDS011;14837;57.148;-2.144;2024-02-28T11:35:31;10.38;;;4.28;;
27365;SDS011;14837;57.148;-2.144;2024-02-28T11:37:59;10.93;;;4.60;;
27365;SDS011;14837;57.148;-2.144;2024-02-28T11:40:26;9.43;;;3.80;;
27365;SDS011;14837;57.148;-2.144;2024-02-28T11:42:53;10.05;;;4.25;;
27365;SDS011;14837;57.148;-2.144;2024-02-28T11:45:21;10.15;;;4.03;;
27365;SDS011;14837;57.148;-2.144;2024-02-28T11:47:47;15.57;;;6.32;;
27365;SDS011;14837;57.148;-2.144;2024-02-28T11:50:14;8.27;;;3.33;;
27365;SDS011;14837;57.148;-2.144;2024-02-28T11:52:41;10.27;;;4.90;;
27365;SDS011;14837;57.148;-2.144;2024-02-28T11:55:07;7.18;;;3.25;;
27365;SDS011;14837;57.148;-2.144;2024-02-28T11:57:34;8.65;;;3.85;;
27365;SDS011;14837;57.148;-2.144;2024-02-28T12:00:03;12.50;;;4.82;;
27365;SDS011;14837;57.148;-2.144;2024-02-28T12:02:31;10.27;;;4.18;;
27365;SDS011;14837;57.148;-2.144;2024-02-28T12:05:01;11.00;;;3.83;;
27365;SDS011;14837;57.148;-2.144;2024-02-28T12:07:28;12.07;;;4.25;;
27365;SDS011;14837;57.148;-2.144;2024-02-28T12:09:55;14.23;;;4.47;;
27365;SDS011;14837;57.148;-2.144;2024-02-28T12:12:21;11.98;;;4.70;;
27365;SDS011;14837;57.148;-2.144;2024-02-28T12:14:48;8.88;;;4.43;;
27365;SDS011;14837;57.148;-2.144;2024-02-28T12:17:14;9.95;;;4.43;;
27365;SDS011;14837;57.148;-2.144;2024-02-28T12:19:41;13.93;;;4.35;;
27365;SDS011;14837;57.148;-2.144;2024-02-28T12:22:09;12.95;;;5.38;;
27365;SDS011;14837;57.148;-2.144;2024-02-28T12:24:36;9.13;;;3.88;;
27365;SDS011;14837;57.148;-2.144;2024-02-28T12:27:03;12.57;;;5.82;;
27365;SDS011;14837;57.148;-2.144;2024-02-28T12:29:29;9.00;;;4.15;;
27365;SDS011;14837;57.148;-2.144;2024-02-28T12:31:56;11.57;;;5.65;;
27365;SDS011;14837;57.148;-2.144;2024-02-28T12:34:22;12.38;;;5.63;;
27365;SDS011;14837;57.148;-2.144;2024-02-28T12:36:49;13.68;;;4.93;;
27365;SDS011;14837;57.148;-2.144;2024-02-28T12:39:15;11.70;;;4.55;;
27365;SDS011;14837;57.148;-2.144;2024-02-28T12:41:42;13.65;;;5.43;;
27365;SDS011;14837;57.148;-2.144;2024-02-28T12:44:08;10.60;;;3.30;;
27365;SDS011;14837;57.148;-2.144;2024-02-28T12:46:36;10.63;;;4.65;;
27365;SDS011;14837;57.148;-2.144;2024-02-28T12:49:03;13.25;;;3.72;;
27365;SDS011;14837;57.148;-2.144;2024-02-28T12:54:03;11.30;;;4.38;;
27365;SDS011;14837;57.148;-2.144;2024-02-28T12:56:30;9.13;;;3.72;;
27365;SDS011;14837;57.148;-2.144;2024-02-28T12:58:56;13.10;;;5.20;;
27365;SDS011;14837;57.148;-2.144;2024-02-28T13:01:24;10.18;;;3.80;;
27365;SDS011;14837;57.148;-2.144;2024-02-28T13:03:51;10.70;;;4.28;;
27365;SDS011;14837;57.148;-2.144;2024-02-28T13:06:17;11.52;;;4.45;;
27365;SDS011;14837;57.148;-2.144;2024-02-28T13:08:44;11.50;;;5.10;;
27365;SDS011;14837;57.148;-2.144;2024-02-28T13:11:11;15.10;;;5.10;;
27365;SDS011;14837;57.148;-2.144;2024-02-28T13:13:38;8.85;;;4.00;;
27365;SDS011;14837;57.148;-2.144;2024-02-28T13:16:04;11.80;;;4.35;;
27365;SDS011;14837;57.148;-2.144;2024-02-28T13:18:31;6.28;;;3.75;;
27365;SDS011;14837;57.148;-2.144;2024-02-28T13:20:58;8.30;;;4.00;;
27365;SDS011;14837;57.148;-2.144;2024-02-28T13:23:24;12.25;;;4.65;;
27365;SDS011;14837;57.148;-2.144;2024-02-28T13:25:53;11.27;;;3.72;;
27365;SDS011;14837;57.148;-2.144;2024-02-28T13:28:19;12.65;;;3.78;;
27365;SDS011;14837;57.148;-2.144;2024-02-28T13:30:46;11.85;;;4.47;;
27365;SDS011;14837;57.148;-2.144;2024-02-28T13:33:12;11.15;;;3.53;;
27365;SDS011;14837;57.148;-2.144;2024-02-28T13:35:39;9.80;;;4.30;;
27365;SDS011;14837;57.148;-2.144;2024-02-28T13:38:05;11.25;;;4.07;;
27365;SDS011;14837;57.148;-2.144;2024-02-28T13:40:32;10.30;;;3.90;;
27365;SDS011;14837;57.148;-2.144;2024-02-28T13:42:59;7.63;;;3.47;;
27365;SDS011;14837;57.148;-2.144;2024-02-28T13:45:25;7.07;;;3.08;;
27365;SDS011;14837;57.148;-2.144;2024-02-28T13:47:52;8.38;;;3.75;;
27365;SDS011;14837;57.148;-2.144;2024-02-28T13:50:18;13.05;;;3.63;;
27365;SDS011;14837;57.148;-2.144;2024-02-28T13:52:48;10.38;;;3.72;;
27365;SDS011;14837;57.148;-2.144;2024-02-28T13:55:14;8.73;;;3.17;;
27365;SDS011;14837;57.148;-2.144;2024-02-28T13:57:41;8.20;;;3.35;;
27365;SDS011;14837;57.148;-2.144;2024-02-28T14:00:08;9.82;;;3.25;;
27365;SDS011;14837;57.148;-2.144;2024-02-28T14:02:37;8.40;;;2.90;;
27365;SDS011;14837;57.148;-2.144;2024-02-28T14:05:04;9.48;;;3.63;;
27365;SDS011;14837;57.148;-2.144;2024-02-28T14:07:31;7.40;;;2.63;;
27365;SDS011;14837;57.148;-2.144;2024-02-28T14:09:57;10.20;;;3.35;;
27365;SDS011;14837;57.148;-2.144;2024-02-28T14:12:24;9.48;;;3.92;;
27365;SDS011;14837;57.148;-2.144;2024-02-28T14:14:51;9.98;;;4.82;;
27365;SDS011;14837;57.148;-2.144;2024-02-28T14:17:18;6.13;;;3.30;;
27365;SDS011;14837;57.148;-2.144;2024-02-28T14:19:44;7.82;;;3.05;;
27365;SDS011;14837;57.148;-2.144;2024-02-28T14:22:12;8.40;;;3.55;;
27365;SDS011;14837;57.148;-2.144;2024-02-28T14:24:39;12.35;;;4.40;;
27365;SDS011;14837;57.148;-2.144;2024-02-28T14:27:06;13.88;;;4.05;;
27365;SDS011;14837;57.148;-2.144;2024-02-28T14:29:32;7.63;;;4.22;;
27365;SDS011;14837;57.148;-2.144;2024-02-28T14:31:59;10.93;;;4.55;;